createdAt,value
2018-04-20T00:00:30.954Z,15.10
2018-04-20T00:01:02.650Z,15.00
2018-04-20T00:01:34.310Z,15.10
2018-04-20T00:02:05.967Z,15.10
2018-04-20T00:02:37.604Z,15.10
2018-04-20T00:03:09.227Z,15.00
2018-04-20T00:03:40.873Z,15.00
2018-04-20T00:04:12.846Z,15.00
2018-04-20T00:04:44.481Z,15.00
2018-04-20T00:05:16.134Z,15.10
2018-04-20T00:05:47.772Z,15.00
2018-04-20T00:16:10.781Z,15.10
2018-04-20T00:16:42.423Z,14.90
2018-04-20T00:27:04.102Z,14.90
2018-04-20T00:27:35.725Z,14.60
2018-04-20T00:28:07.361Z,14.50
2018-04-20T00:28:38.984Z,14.50
2018-04-20T00:29:10.608Z,14.50
2018-04-20T00:29:42.218Z,14.40
2018-04-20T00:30:13.856Z,14.40
2018-04-20T00:30:45.472Z,14.50
2018-04-20T00:31:17.124Z,14.50
2018-04-20T00:31:48.790Z,14.30
2018-04-20T00:32:20.721Z,14.40
2018-04-20T00:32:52.351Z,14.40
2018-04-20T00:33:23.961Z,14.30
2018-04-20T00:33:55.576Z,14.40
2018-04-20T00:34:27.219Z,14.40
2018-04-20T00:34:58.902Z,14.30
2018-04-20T00:35:30.507Z,14.40
2018-04-20T00:36:02.126Z,14.30
2018-04-20T00:36:33.760Z,14.40
2018-04-20T00:37:05.418Z,14.30
2018-04-20T00:37:37.030Z,14.40
2018-04-20T00:38:08.707Z,14.30
2018-04-20T00:38:40.635Z,14.30
2018-04-20T00:39:12.272Z,14.40
2018-04-20T00:39:43.896Z,14.30
2018-04-20T00:40:15.516Z,14.30
2018-04-20T00:40:47.168Z,14.40
2018-04-20T00:41:18.810Z,14.20
2018-04-20T00:41:50.455Z,14.30
2018-04-20T00:42:22.082Z,14.30
2018-04-20T00:42:53.779Z,14.30
2018-04-20T00:43:25.408Z,14.40
2018-04-20T00:43:57.024Z,14.30
2018-04-20T00:44:28.642Z,14.40
2018-04-20T00:45:00.258Z,14.40
2018-04-20T00:45:31.904Z,14.40
2018-04-20T00:46:03.532Z,14.30
2018-04-20T00:46:35.208Z,14.40
2018-04-20T00:47:06.840Z,14.30
2018-04-20T00:47:38.483Z,14.30
2018-04-20T00:48:10.155Z,14.30
2018-04-20T00:48:41.779Z,14.30
2018-04-20T00:49:13.424Z,14.30
2018-04-20T00:49:45.093Z,14.30
2018-04-20T00:50:16.731Z,14.30
2018-04-20T00:50:48.368Z,14.30
2018-04-20T00:51:20.005Z,14.30
2018-04-20T00:51:51.628Z,14.40
2018-04-20T00:52:23.262Z,14.30
2018-04-20T00:52:54.908Z,14.30
2018-04-20T00:53:45.166Z,14.30
2018-04-20T00:54:22.966Z,14.20
2018-04-20T00:54:54.609Z,14.30
2018-04-20T00:55:26.226Z,14.30
2018-04-20T00:55:57.908Z,14.30
2018-04-20T00:56:29.540Z,14.30
2018-04-20T00:57:01.171Z,14.20
2018-04-20T00:57:32.808Z,14.30
2018-04-20T00:58:04.441Z,14.30
2018-04-20T00:58:36.076Z,14.20
2018-04-20T00:59:07.717Z,14.30
2018-04-20T00:59:39.352Z,14.20
2018-04-20T01:00:11.025Z,14.20
2018-04-20T01:00:42.703Z,14.20
2018-04-20T01:01:14.352Z,14.30
2018-04-20T01:01:46.072Z,14.30
2018-04-20T01:02:17.739Z,14.30
2018-04-20T01:02:49.354Z,14.30
2018-04-20T01:03:20.966Z,14.20
2018-04-20T01:03:52.606Z,14.20
2018-04-20T01:04:24.241Z,14.20
2018-04-20T01:04:55.858Z,14.20
2018-04-20T01:05:27.480Z,14.30
2018-04-20T01:05:59.135Z,14.20
2018-04-20T01:06:30.794Z,14.20
2018-04-20T01:07:02.477Z,14.20
2018-04-20T01:07:34.102Z,14.20
2018-04-20T01:08:05.744Z,14.20
2018-04-20T01:08:37.388Z,14.20
2018-04-20T01:09:09.064Z,14.20
2018-04-20T01:09:40.724Z,14.20
2018-04-20T01:10:12.444Z,14.30
2018-04-20T01:10:44.080Z,14.20
2018-04-20T01:11:16.519Z,14.20
2018-04-20T01:11:48.226Z,14.20
2018-04-20T01:12:19.912Z,14.20
2018-04-20T01:12:51.487Z,14.20
2018-04-20T01:13:23.106Z,14.20
2018-04-20T01:13:54.752Z,14.20
2018-04-20T01:14:26.388Z,14.20
2018-04-20T01:15:00.855Z,14.20
2018-04-20T01:15:32.475Z,14.20
2018-04-20T01:16:04.145Z,14.20
2018-04-20T01:16:35.790Z,14.20
2018-04-20T01:17:07.427Z,14.20
2018-04-20T01:17:39.075Z,14.20
2018-04-20T01:18:10.713Z,14.10
2018-04-20T01:18:42.345Z,14.20
2018-04-20T01:19:14.019Z,14.20
2018-04-20T01:19:45.678Z,14.10
2018-04-20T01:20:17.347Z,14.10
2018-04-20T01:20:48.965Z,14.20
2018-04-20T01:21:20.612Z,14.10
2018-04-20T01:21:52.231Z,14.20
2018-04-20T01:22:23.857Z,14.20
2018-04-20T01:22:56.286Z,14.10
2018-04-20T01:23:27.922Z,14.10
2018-04-20T01:23:59.544Z,14.10
2018-04-20T01:24:31.142Z,14.10
2018-04-20T01:25:02.819Z,14.10
2018-04-20T01:25:34.449Z,14.10
2018-04-20T01:26:06.088Z,14.10
2018-04-20T01:26:37.720Z,14.10
2018-04-20T01:27:09.352Z,14.10
2018-04-20T01:27:41.010Z,14.00
2018-04-20T01:28:12.638Z,14.10
2018-04-20T01:28:44.262Z,14.00
2018-04-20T01:29:15.899Z,14.00
2018-04-20T01:29:47.533Z,14.00
2018-04-20T01:30:19.152Z,14.00
2018-04-20T01:30:50.788Z,14.10
2018-04-20T01:31:22.418Z,14.10
2018-04-20T01:31:54.046Z,14.00
2018-04-20T01:32:25.680Z,14.00
2018-04-20T01:32:57.332Z,14.00
2018-04-20T01:33:28.971Z,14.10
2018-04-20T01:34:00.592Z,14.00
2018-04-20T01:34:32.216Z,14.00
2018-04-20T01:35:03.836Z,14.00
2018-04-20T01:35:35.454Z,14.00
2018-04-20T01:36:07.084Z,14.00
2018-04-20T01:36:38.724Z,14.00
2018-04-20T01:37:10.384Z,14.00
2018-04-20T01:37:42.030Z,14.10
2018-04-20T01:38:13.651Z,14.00
2018-04-20T01:38:45.299Z,14.00
2018-04-20T01:39:16.929Z,14.00
2018-04-20T01:39:48.552Z,14.00
2018-04-20T01:40:20.198Z,14.00
2018-04-20T01:40:51.822Z,14.00
2018-04-20T01:41:23.456Z,14.00
2018-04-20T01:41:55.081Z,14.00
2018-04-20T01:42:26.699Z,13.90
2018-04-20T01:42:58.327Z,13.90
2018-04-20T01:43:29.974Z,13.90
2018-04-20T01:44:01.621Z,13.90
2018-04-20T01:44:33.281Z,14.00
2018-04-20T01:45:04.927Z,13.90
2018-04-20T01:45:36.563Z,13.90
2018-04-20T01:46:08.197Z,13.90
2018-04-20T01:46:39.859Z,13.90
2018-04-20T01:47:11.482Z,13.90
2018-04-20T01:47:43.123Z,13.90
2018-04-20T01:48:14.739Z,13.90
2018-04-20T01:48:46.390Z,13.80
2018-04-20T01:49:18.036Z,13.90
2018-04-20T01:49:49.668Z,13.80
2018-04-20T01:50:21.274Z,13.90
2018-04-20T01:50:52.911Z,13.90
2018-04-20T01:51:24.543Z,13.80
2018-04-20T01:51:56.509Z,13.80
2018-04-20T01:52:28.215Z,13.80
2018-04-20T01:52:59.852Z,13.80
2018-04-20T01:53:31.483Z,13.70
2018-04-20T01:54:03.130Z,13.80
2018-04-20T01:54:34.753Z,13.90
2018-04-20T01:55:06.403Z,13.80
2018-04-20T01:55:38.120Z,13.80
2018-04-20T01:56:09.754Z,13.70
2018-04-20T01:56:41.701Z,13.80
2018-04-20T01:57:13.387Z,13.70
2018-04-20T01:57:45.023Z,13.80
2018-04-20T01:58:16.672Z,13.80
2018-04-20T01:58:48.326Z,13.80
2018-04-20T01:59:19.986Z,13.70
2018-04-20T01:59:51.655Z,13.80
2018-04-20T02:00:23.284Z,13.70
2018-04-20T02:00:54.977Z,13.70
2018-04-20T02:01:26.599Z,13.70
2018-04-20T02:01:58.210Z,13.80
2018-04-20T02:02:29.836Z,13.70
2018-04-20T02:03:02.389Z,13.70
2018-04-20T02:03:34.006Z,13.70
2018-04-20T02:04:05.637Z,13.60
2018-04-20T02:04:38.239Z,13.70
2018-04-20T02:05:09.890Z,13.60
2018-04-20T02:05:41.536Z,13.60
2018-04-20T02:06:13.195Z,13.60
2018-04-20T02:06:44.872Z,13.60
2018-04-20T02:07:16.550Z,13.70
2018-04-20T02:07:48.513Z,13.60
2018-04-20T02:08:20.143Z,13.70
2018-04-20T02:08:51.773Z,13.70
2018-04-20T02:09:24.373Z,13.60
2018-04-20T02:09:56.022Z,13.60
2018-04-20T02:10:27.910Z,13.60
2018-04-20T02:10:59.556Z,13.60
2018-04-20T02:11:31.228Z,13.60
2018-04-20T02:12:02.872Z,13.70
2018-04-20T02:12:34.529Z,13.70
2018-04-20T02:13:06.170Z,13.70
2018-04-20T02:13:37.834Z,13.70
2018-04-20T02:14:09.486Z,13.80
2018-04-20T02:14:41.114Z,13.90
2018-04-20T02:15:12.732Z,13.90
2018-04-20T02:15:44.386Z,13.90
2018-04-20T02:16:16.019Z,13.90
2018-04-20T02:16:47.660Z,13.90
2018-04-20T02:17:19.304Z,13.90
2018-04-20T02:17:50.936Z,13.90
2018-04-20T02:18:22.575Z,13.80
2018-04-20T02:18:54.191Z,13.90
2018-04-20T02:19:25.797Z,13.80
2018-04-20T02:19:57.434Z,13.90
2018-04-20T02:20:29.056Z,13.90
2018-04-20T02:30:50.713Z,13.80
2018-04-20T02:31:22.338Z,13.60
2018-04-20T02:31:53.971Z,13.40
2018-04-20T02:32:25.590Z,13.50
2018-04-20T02:32:57.219Z,13.40
2018-04-20T02:33:28.837Z,13.50
2018-04-20T02:34:00.463Z,13.40
2018-04-20T02:34:32.077Z,13.30
2018-04-20T02:35:03.720Z,13.30
2018-04-20T02:35:35.373Z,13.40
2018-04-20T02:36:07.018Z,13.30
2018-04-20T02:36:38.648Z,13.20
2018-04-20T02:37:10.301Z,13.30
2018-04-20T02:37:41.968Z,13.20
2018-04-20T02:38:13.594Z,13.30
2018-04-20T02:38:45.207Z,13.30
2018-04-20T02:39:16.835Z,13.30
2018-04-20T02:39:48.461Z,13.30
2018-04-20T02:40:20.094Z,13.30
2018-04-20T02:40:51.709Z,13.40
2018-04-20T02:41:23.569Z,13.30
2018-04-20T02:41:55.195Z,13.30
2018-04-20T02:42:26.847Z,13.40
2018-04-20T02:42:58.454Z,13.30
2018-04-20T02:43:30.071Z,13.30
2018-04-20T02:44:01.746Z,13.40
2018-04-20T02:44:33.371Z,13.30
2018-04-20T02:45:05.020Z,13.30
2018-04-20T02:45:36.639Z,13.30
2018-04-20T02:46:08.281Z,13.30
2018-04-20T02:46:39.909Z,13.20
2018-04-20T02:47:11.548Z,13.20
2018-04-20T02:47:43.188Z,13.20
2018-04-20T02:48:14.812Z,13.20
2018-04-20T02:48:46.458Z,13.20
2018-04-20T02:49:18.073Z,13.10
2018-04-20T02:49:49.716Z,13.20
2018-04-20T02:50:21.343Z,13.20
2018-04-20T02:50:52.944Z,13.10
2018-04-20T02:51:24.608Z,13.20
2018-04-20T02:51:56.259Z,13.20
2018-04-20T02:52:27.919Z,13.10
2018-04-20T02:52:59.549Z,13.10
2018-04-20T02:53:31.186Z,13.10
2018-04-20T02:54:02.868Z,13.10
2018-04-20T02:54:34.503Z,13.10
2018-04-20T02:55:06.170Z,13.00
2018-04-20T02:55:37.840Z,13.10
2018-04-20T02:56:09.463Z,13.10
2018-04-20T02:56:41.096Z,13.10
2018-04-20T02:57:12.715Z,13.00
2018-04-20T02:57:44.390Z,13.10
2018-04-20T02:58:16.253Z,13.10
2018-04-20T02:58:47.906Z,13.00
2018-04-20T02:59:19.553Z,13.10
2018-04-20T02:59:51.187Z,13.00
2018-04-20T03:00:22.804Z,13.10
2018-04-20T03:00:54.432Z,13.10
2018-04-20T03:01:26.052Z,13.10
2018-04-20T03:01:57.711Z,13.00
2018-04-20T03:02:29.380Z,13.00
2018-04-20T03:03:01.016Z,13.00
2018-04-20T03:03:32.642Z,13.10
2018-04-20T03:04:04.253Z,13.00
2018-04-20T03:04:35.878Z,13.00
2018-04-20T03:05:07.486Z,13.00
2018-04-20T03:05:39.117Z,13.00
2018-04-20T03:06:11.510Z,13.00
2018-04-20T03:06:43.140Z,13.00
2018-04-20T03:07:14.789Z,13.00
2018-04-20T03:07:46.520Z,13.00
2018-04-20T03:08:18.143Z,13.00
2018-04-20T03:08:49.768Z,13.00
2018-04-20T03:09:21.390Z,13.00
2018-04-20T03:09:53.040Z,13.00
2018-04-20T03:10:24.677Z,13.00
2018-04-20T03:10:56.333Z,13.00
2018-04-20T03:11:28.016Z,12.90
2018-04-20T03:11:59.677Z,13.00
2018-04-20T03:12:32.365Z,12.90
2018-04-20T03:13:04.023Z,13.00
2018-04-20T03:13:36.387Z,13.00
2018-04-20T03:14:08.002Z,13.00
2018-04-20T03:14:39.649Z,13.00
2018-04-20T03:15:11.275Z,13.00
2018-04-20T03:15:42.915Z,13.00
2018-04-20T03:16:14.540Z,13.00
2018-04-20T03:16:46.169Z,12.90
2018-04-20T03:17:17.811Z,12.90
2018-04-20T03:17:49.469Z,13.00
2018-04-20T03:18:21.099Z,13.00
2018-04-20T03:18:52.724Z,13.00
2018-04-20T03:19:24.345Z,12.90
2018-04-20T03:19:55.962Z,13.00
2018-04-20T03:20:27.607Z,13.00
2018-04-20T03:20:59.239Z,12.90
2018-04-20T03:21:30.860Z,12.90
2018-04-20T03:22:02.488Z,13.00
2018-04-20T03:22:34.119Z,13.00
2018-04-20T03:23:05.740Z,12.90
2018-04-20T03:23:37.366Z,12.90
2018-04-20T03:24:08.992Z,13.00
2018-04-20T03:24:45.627Z,13.00
2018-04-20T03:25:17.267Z,13.00
2018-04-20T03:25:48.914Z,12.90
2018-04-20T03:26:20.556Z,13.00
2018-04-20T03:26:52.202Z,12.90
2018-04-20T03:27:23.822Z,13.00
2018-04-20T03:27:55.454Z,12.90
2018-04-20T03:28:27.107Z,13.00
2018-04-20T03:28:58.740Z,13.00
2018-04-20T03:29:30.366Z,13.00
2018-04-20T03:30:01.998Z,12.90
2018-04-20T03:30:34.532Z,13.00
2018-04-20T03:31:06.166Z,13.00
2018-04-20T03:31:37.798Z,12.90
2018-04-20T03:32:09.434Z,12.90
2018-04-20T03:32:41.058Z,12.90
2018-04-20T03:33:12.676Z,12.90
2018-04-20T03:33:44.310Z,12.90
2018-04-20T03:34:15.951Z,12.90
2018-04-20T03:34:47.568Z,12.90
2018-04-20T03:35:19.212Z,12.90
2018-04-20T03:35:50.840Z,12.90
2018-04-20T03:36:22.494Z,12.90
2018-04-20T03:36:54.096Z,12.80
2018-04-20T03:37:25.695Z,12.90
2018-04-20T03:37:57.346Z,12.80
2018-04-20T03:38:29.063Z,12.80
2018-04-20T03:39:00.679Z,12.90
2018-04-20T03:39:32.307Z,12.80
2018-04-20T03:40:03.934Z,12.80
2018-04-20T03:40:35.557Z,12.90
2018-04-20T03:41:07.185Z,12.80
2018-04-20T03:41:38.822Z,12.80
2018-04-20T03:42:10.438Z,12.80
2018-04-20T03:42:42.055Z,12.80
2018-04-20T03:43:13.690Z,12.90
2018-04-20T03:43:45.306Z,12.80
2018-04-20T03:44:16.916Z,12.80
2018-04-20T03:44:48.599Z,12.80
2018-04-20T03:45:20.271Z,12.80
2018-04-20T03:45:51.898Z,12.80
2018-04-20T03:46:23.515Z,12.90
2018-04-20T03:46:55.136Z,12.90
2018-04-20T03:47:26.750Z,12.80
2018-04-20T03:47:59.077Z,12.90
2018-04-20T03:48:30.725Z,12.80
2018-04-20T03:49:02.360Z,12.80
2018-04-20T03:49:33.991Z,12.80
2018-04-20T03:50:05.655Z,12.80
2018-04-20T03:50:37.277Z,12.80
2018-04-20T03:51:08.914Z,12.80
2018-04-20T03:51:40.538Z,12.80
2018-04-20T03:52:12.188Z,12.70
2018-04-20T03:52:43.811Z,12.70
2018-04-20T03:53:15.428Z,12.70
2018-04-20T03:53:47.070Z,12.80
2018-04-20T03:54:18.713Z,12.70
2018-04-20T03:54:50.332Z,12.80
2018-04-20T03:55:21.964Z,12.80
2018-04-20T03:55:53.591Z,12.70
2018-04-20T03:56:25.210Z,12.80
2018-04-20T03:56:56.894Z,12.80
2018-04-20T03:57:28.536Z,12.70
2018-04-20T03:58:00.177Z,12.80
2018-04-20T03:58:31.816Z,12.80
2018-04-20T03:59:03.466Z,12.80
2018-04-20T03:59:35.106Z,12.70
2018-04-20T04:00:06.779Z,12.80
2018-04-20T04:00:43.413Z,12.80
2018-04-20T04:01:15.068Z,12.80
2018-04-20T04:01:46.716Z,12.70
2018-04-20T04:02:18.370Z,12.70
2018-04-20T04:02:50.002Z,12.70
2018-04-20T04:03:21.640Z,12.80
2018-04-20T04:03:53.291Z,12.70
2018-04-20T04:04:24.948Z,12.80
2018-04-20T04:04:56.597Z,12.70
2018-04-20T04:05:29.166Z,12.70
2018-04-20T04:06:00.840Z,12.70
2018-04-20T04:06:32.496Z,12.70
2018-04-20T04:07:04.143Z,12.70
2018-04-20T04:07:35.789Z,12.70
2018-04-20T04:08:07.452Z,12.70
2018-04-20T04:08:39.074Z,12.70
2018-04-20T04:09:10.704Z,12.70
2018-04-20T04:09:42.340Z,12.70
2018-04-20T04:10:13.974Z,12.60
2018-04-20T04:10:45.631Z,12.70
2018-04-20T04:11:17.262Z,12.70
2018-04-20T04:11:48.880Z,12.60
2018-04-20T04:12:20.521Z,12.70
2018-04-20T04:12:52.193Z,12.60
2018-04-20T04:13:23.816Z,12.60
2018-04-20T04:13:55.464Z,12.60
2018-04-20T04:14:27.080Z,12.60
2018-04-20T04:14:58.704Z,12.60
2018-04-20T04:15:30.320Z,12.60
2018-04-20T04:16:01.964Z,12.60
2018-04-20T04:16:52.228Z,12.60
2018-04-20T04:17:42.756Z,12.60
2018-04-20T04:18:32.782Z,12.70
2018-04-20T04:19:23.024Z,12.60
2018-04-20T04:20:03.816Z,12.60
2018-04-20T04:20:51.986Z,12.60
2018-04-20T04:21:42.163Z,12.60
2018-04-20T04:22:32.520Z,12.60
2018-04-20T04:23:22.873Z,12.60
2018-04-20T04:24:13.132Z,12.60
2018-04-20T04:25:03.178Z,12.60
2018-04-20T04:25:53.292Z,12.60
2018-04-20T04:26:43.373Z,12.60
2018-04-20T04:27:45.767Z,12.60
2018-04-20T04:28:26.523Z,12.50
2018-04-20T04:28:58.161Z,12.50
2018-04-20T04:29:29.786Z,12.60
2018-04-20T04:30:01.417Z,12.50
2018-04-20T04:30:33.052Z,12.50
2018-04-20T04:31:04.813Z,12.50
2018-04-20T04:31:36.456Z,12.50
2018-04-20T04:32:08.107Z,12.50
2018-04-20T04:32:39.725Z,12.50
2018-04-20T04:33:11.358Z,12.60
2018-04-20T04:33:42.991Z,12.50
2018-04-20T04:34:14.620Z,12.50
2018-04-20T04:34:46.240Z,12.50
2018-04-20T04:35:17.867Z,12.50
2018-04-20T04:35:49.493Z,12.50
2018-04-20T04:36:21.146Z,12.50
2018-04-20T04:36:52.797Z,12.50
2018-04-20T04:37:24.425Z,12.50
2018-04-20T04:37:56.064Z,12.50
2018-04-20T04:38:27.688Z,12.50
2018-04-20T04:38:59.313Z,12.50
2018-04-20T04:39:31.252Z,12.50
2018-04-20T04:40:02.923Z,12.50
2018-04-20T04:40:34.560Z,12.50
2018-04-20T04:41:06.196Z,12.50
2018-04-20T04:41:37.830Z,12.50
2018-04-20T04:42:09.463Z,12.50
2018-04-20T04:42:41.076Z,12.50
2018-04-20T04:43:12.694Z,12.60
2018-04-20T04:43:44.335Z,12.50
2018-04-20T04:44:15.963Z,12.60
2018-04-20T04:44:47.596Z,12.60
2018-04-20T04:45:19.219Z,12.50
2018-04-20T04:45:50.865Z,12.50
2018-04-20T04:46:22.507Z,12.60
2018-04-20T04:46:54.139Z,12.60
2018-04-20T04:47:25.756Z,12.50
2018-04-20T04:47:57.430Z,12.60
2018-04-20T04:48:29.019Z,12.60
2018-04-20T04:49:00.665Z,12.60
2018-04-20T04:49:32.318Z,12.70
2018-04-20T04:50:03.959Z,12.70
2018-04-20T04:50:35.609Z,12.60
2018-04-20T04:51:07.238Z,12.70
2018-04-20T04:51:38.851Z,12.70
2018-04-20T04:52:10.489Z,12.70
2018-04-20T04:52:42.113Z,12.70
2018-04-20T04:53:13.797Z,12.70
2018-04-20T04:53:45.427Z,12.70
2018-04-20T04:54:17.069Z,12.70
2018-04-20T04:54:48.711Z,12.70
2018-04-20T04:55:20.395Z,12.70
2018-04-20T04:55:52.029Z,12.80
2018-04-20T04:56:23.655Z,12.80
2018-04-20T04:56:55.279Z,12.80
2018-04-20T04:57:26.921Z,12.90
2018-04-20T04:57:58.538Z,12.80
2018-04-20T04:58:30.159Z,12.80
2018-04-20T04:59:01.785Z,12.80
2018-04-20T04:59:34.199Z,12.80
2018-04-20T05:00:05.851Z,12.90
2018-04-20T05:00:37.492Z,12.90
2018-04-20T05:01:09.127Z,13.00
2018-04-20T05:01:40.753Z,12.90
2018-04-20T05:02:12.388Z,13.00
2018-04-20T05:02:44.007Z,13.00
2018-04-20T05:03:15.623Z,13.00
2018-04-20T05:03:47.249Z,13.10
2018-04-20T05:04:18.891Z,13.10
2018-04-20T05:04:50.546Z,13.20
2018-04-20T05:05:22.166Z,13.10
2018-04-20T05:05:53.797Z,13.20
2018-04-20T05:06:25.456Z,13.20
2018-04-20T05:06:57.096Z,13.30
2018-04-20T05:07:28.723Z,13.20
2018-04-20T05:08:00.353Z,13.30
2018-04-20T05:08:31.989Z,13.40
2018-04-20T05:09:03.675Z,13.40
2018-04-20T05:09:35.301Z,13.40
2018-04-20T05:10:06.947Z,13.40
2018-04-20T05:10:38.607Z,13.50
2018-04-20T05:11:10.230Z,13.50
2018-04-20T05:11:41.861Z,13.50
2018-04-20T05:12:13.495Z,13.50
2018-04-20T05:12:45.141Z,13.60
2018-04-20T05:13:16.771Z,13.70
2018-04-20T05:13:48.399Z,13.60
2018-04-20T05:14:20.028Z,13.80
2018-04-20T05:14:51.671Z,13.70
2018-04-20T05:15:23.353Z,13.70
2018-04-20T05:15:54.991Z,13.80
2018-04-20T05:16:26.634Z,13.80
2018-04-20T05:16:58.287Z,13.90
2018-04-20T05:17:29.903Z,14.00
2018-04-20T05:18:01.548Z,14.00
2018-04-20T05:18:33.177Z,13.90
2018-04-20T05:19:04.824Z,14.00
2018-04-20T05:19:36.447Z,14.00
2018-04-20T05:20:08.071Z,14.10
2018-04-20T05:20:39.709Z,14.10
2018-04-20T05:21:11.341Z,14.10
2018-04-20T05:21:42.957Z,14.10
2018-04-20T05:22:14.605Z,14.10
2018-04-20T05:22:46.231Z,14.10
2018-04-20T05:23:17.881Z,14.10
2018-04-20T05:23:49.486Z,14.30
2018-04-20T05:34:11.191Z,14.20
2018-04-20T05:34:42.819Z,14.80
2018-04-20T05:35:14.479Z,14.70
2018-04-20T05:35:46.121Z,14.70
2018-04-20T05:36:17.749Z,14.80
2018-04-20T05:36:49.411Z,14.90
2018-04-20T05:37:21.049Z,14.90
2018-04-20T05:37:52.685Z,14.90
2018-04-20T05:38:24.359Z,14.90
2018-04-20T05:38:56.467Z,14.90
2018-04-20T05:39:29.012Z,15.00
2018-04-20T05:40:00.646Z,14.90
2018-04-20T05:40:32.275Z,15.00
2018-04-20T05:41:03.979Z,15.00
2018-04-20T05:41:35.657Z,15.10
2018-04-20T05:42:07.307Z,15.10
2018-04-20T05:42:38.923Z,15.10
2018-04-20T05:43:10.563Z,15.20
2018-04-20T05:43:42.231Z,15.30
2018-04-20T05:44:14.079Z,15.30
2018-04-20T05:44:45.731Z,15.30
2018-04-20T05:45:17.409Z,15.40
2018-04-20T05:45:49.055Z,15.40
2018-04-20T05:46:20.690Z,15.40
2018-04-20T05:46:52.345Z,15.50
2018-04-20T05:47:24.005Z,15.60
2018-04-20T05:47:55.649Z,15.70
2018-04-20T05:48:27.295Z,15.60
2018-04-20T05:48:59.005Z,15.60
2018-04-20T05:49:30.688Z,15.70
2018-04-20T05:50:02.429Z,15.80
2018-04-20T05:50:39.100Z,15.80
2018-04-20T05:51:10.772Z,15.80
2018-04-20T05:51:42.441Z,15.80
2018-04-20T05:52:14.113Z,16.00
2018-04-20T05:52:45.755Z,16.00
2018-04-20T05:53:17.406Z,16.00
2018-04-20T05:53:49.039Z,16.00
2018-04-20T05:54:20.893Z,16.10
2018-04-20T05:54:52.542Z,16.10
2018-04-20T05:55:24.215Z,16.20
2018-04-20T05:55:55.880Z,16.10
2018-04-20T05:56:27.522Z,16.20
2018-04-20T05:56:59.180Z,16.20
2018-04-20T05:57:30.848Z,16.20
2018-04-20T05:58:02.530Z,16.30
2018-04-20T05:58:34.179Z,16.30
2018-04-20T05:59:05.841Z,16.30
2018-04-20T05:59:37.507Z,16.30
2018-04-20T06:00:09.163Z,16.30
2018-04-20T06:00:40.815Z,16.40
2018-04-20T06:01:12.492Z,16.40
2018-04-20T06:01:47.109Z,16.50
2018-04-20T06:02:18.751Z,16.50
2018-04-20T06:02:50.423Z,16.50
2018-04-20T06:03:22.075Z,16.60
2018-04-20T06:03:53.729Z,16.60
2018-04-20T06:04:25.370Z,16.60
2018-04-20T06:04:57.009Z,16.60
2018-04-20T06:05:28.692Z,16.60
2018-04-20T06:06:00.377Z,16.70
2018-04-20T06:06:32.022Z,16.70
2018-04-20T06:07:03.722Z,16.70
2018-04-20T06:07:35.351Z,16.80
2018-04-20T06:08:07.000Z,16.70
2018-04-20T06:08:38.695Z,16.80
2018-04-20T06:09:10.395Z,16.80
2018-04-20T06:09:42.073Z,16.90
2018-04-20T06:10:14.017Z,16.90
2018-04-20T06:10:45.732Z,17.00
2018-04-20T06:11:17.409Z,17.00
2018-04-20T06:11:49.085Z,17.00
2018-04-20T06:12:20.742Z,17.00
2018-04-20T06:12:52.390Z,17.10
2018-04-20T06:13:24.039Z,17.10
2018-04-20T06:13:55.691Z,17.20
2018-04-20T06:14:27.359Z,17.20
2018-04-20T06:14:59.052Z,17.20
2018-04-20T06:15:30.687Z,17.20
2018-04-20T06:16:02.373Z,17.30
2018-04-20T06:16:34.031Z,17.30
2018-04-20T06:17:05.971Z,17.30
2018-04-20T06:17:37.643Z,17.30
2018-04-20T06:18:09.363Z,17.40
2018-04-20T06:18:41.043Z,17.50
2018-04-20T06:19:12.707Z,17.50
2018-04-20T06:19:44.355Z,17.50
2018-04-20T06:20:16.037Z,17.60
2018-04-20T06:20:47.733Z,17.60
2018-04-20T06:21:20.738Z,17.60
2018-04-20T06:21:52.413Z,17.70
2018-04-20T06:22:24.092Z,17.70
2018-04-20T06:22:55.763Z,17.80
2018-04-20T06:23:27.446Z,17.80
2018-04-20T06:23:59.109Z,17.80
2018-04-20T06:24:30.792Z,17.80
2018-04-20T06:25:02.511Z,17.90
2018-04-20T06:25:34.145Z,17.90
2018-04-20T06:26:05.803Z,18.00
2018-04-20T06:26:37.473Z,17.90
2018-04-20T06:27:09.125Z,18.10
2018-04-20T06:27:40.783Z,18.00
2018-04-20T06:28:12.453Z,18.10
2018-04-20T06:28:44.083Z,18.20
2018-04-20T06:29:15.761Z,18.10
2018-04-20T06:29:47.382Z,18.30
2018-04-20T06:30:19.015Z,18.20
2018-04-20T06:30:50.669Z,18.30
2018-04-20T06:31:22.318Z,18.40
2018-04-20T06:31:53.940Z,18.40
2018-04-20T06:32:25.591Z,18.50
2018-04-20T06:32:57.212Z,18.60
2018-04-20T06:33:28.831Z,18.60
2018-04-20T06:34:00.458Z,18.60
2018-04-20T06:34:32.089Z,18.70
2018-04-20T06:35:03.741Z,18.60
2018-04-20T06:35:35.346Z,18.70
2018-04-20T06:36:06.965Z,18.80
2018-04-20T06:36:38.597Z,18.70
2018-04-20T06:37:10.234Z,18.70
2018-04-20T06:37:41.866Z,18.80
2018-04-20T06:38:13.475Z,18.80
2018-04-20T06:38:45.109Z,18.80
2018-04-20T06:39:16.723Z,18.90
2018-04-20T06:39:48.350Z,18.90
2018-04-20T06:40:19.981Z,18.90
2018-04-20T06:40:51.596Z,19.00
2018-04-20T06:41:23.217Z,19.00
2018-04-20T06:41:54.852Z,19.10
2018-04-20T06:42:26.459Z,19.10
2018-04-20T06:42:58.069Z,19.10
2018-04-20T06:43:29.698Z,19.20
2018-04-20T06:44:01.317Z,19.20
2018-04-20T06:44:32.941Z,19.30
2018-04-20T06:45:04.561Z,19.30
2018-04-20T06:45:36.188Z,19.50
2018-04-20T06:46:07.859Z,19.50
2018-04-20T06:46:39.479Z,19.60
2018-04-20T06:47:11.107Z,19.60
2018-04-20T06:47:42.785Z,19.70
2018-04-20T06:48:14.372Z,19.70
2018-04-20T06:48:45.976Z,19.80
2018-04-20T06:49:17.596Z,19.90
2018-04-20T06:49:49.209Z,19.90
2018-04-20T06:50:20.847Z,20.00
2018-04-20T06:50:52.494Z,20.10
2018-04-20T06:51:24.143Z,20.10
2018-04-20T06:51:55.763Z,20.10
2018-04-20T06:52:27.384Z,20.20
2018-04-20T06:52:59.005Z,20.30
2018-04-20T06:53:30.624Z,20.40
2018-04-20T06:54:02.227Z,20.60
2018-04-20T06:54:33.867Z,20.50
2018-04-20T06:55:05.485Z,20.60
2018-04-20T06:55:37.112Z,20.70
2018-04-20T06:56:08.763Z,20.60
2018-04-20T06:56:40.398Z,20.70
2018-04-20T06:57:12.021Z,20.80
2018-04-20T06:57:44.055Z,20.80
2018-04-20T06:58:15.687Z,20.90
2018-04-20T06:58:47.335Z,20.90
2018-04-20T06:59:18.947Z,20.90
2018-04-20T06:59:50.567Z,20.90
2018-04-20T07:00:22.207Z,21.00
2018-04-20T07:00:53.842Z,21.10
2018-04-20T07:01:25.459Z,21.20
2018-04-20T07:01:57.115Z,21.20
2018-04-20T07:02:28.731Z,21.20
2018-04-20T07:03:00.382Z,21.40
2018-04-20T07:03:32.015Z,21.30
2018-04-20T07:04:03.642Z,21.50
2018-04-20T07:04:35.266Z,21.40
2018-04-20T07:05:06.879Z,21.40
2018-04-20T07:05:38.529Z,21.30
2018-04-20T07:06:10.159Z,21.30
2018-04-20T07:06:41.783Z,21.30
2018-04-20T07:07:13.413Z,21.30
2018-04-20T07:07:45.015Z,21.40
2018-04-20T07:08:16.659Z,21.40
2018-04-20T07:08:48.279Z,21.50
2018-04-20T07:09:19.911Z,21.40
2018-04-20T07:09:51.540Z,21.60
2018-04-20T07:10:23.146Z,21.50
2018-04-20T07:10:54.786Z,21.60
2018-04-20T07:11:26.489Z,21.50
2018-04-20T07:11:58.121Z,21.60
2018-04-20T07:12:29.739Z,21.60
2018-04-20T07:13:01.356Z,21.60
2018-04-20T07:13:32.987Z,21.50
2018-04-20T07:14:04.621Z,21.60
2018-04-20T07:14:36.244Z,21.50
2018-04-20T07:15:07.870Z,21.50
2018-04-20T07:15:39.525Z,21.50
2018-04-20T07:16:11.152Z,21.60
2018-04-20T07:16:42.784Z,21.60
2018-04-20T07:17:14.461Z,21.60
2018-04-20T07:17:46.047Z,21.60
2018-04-20T07:18:17.687Z,21.60
2018-04-20T07:18:49.325Z,21.60
2018-04-20T07:19:20.951Z,21.70
2018-04-20T07:19:52.593Z,21.80
2018-04-20T07:20:24.220Z,21.80
2018-04-20T07:20:55.833Z,21.80
2018-04-20T07:21:27.462Z,21.90
2018-04-20T07:21:59.081Z,21.90
2018-04-20T07:22:45.631Z,22.00
2018-04-20T07:23:17.310Z,22.00
2018-04-20T07:23:48.911Z,22.00
2018-04-20T07:24:20.518Z,22.10
2018-04-20T07:24:52.141Z,22.20
2018-04-20T07:25:23.783Z,22.20
2018-04-20T07:25:55.407Z,22.20
2018-04-20T07:26:27.015Z,22.20
2018-04-20T07:26:58.647Z,22.20
2018-04-20T07:27:30.283Z,22.30
2018-04-20T07:28:01.939Z,22.20
2018-04-20T07:28:33.565Z,22.30
2018-04-20T07:29:05.215Z,22.40
2018-04-20T07:29:36.846Z,22.50
2018-04-20T07:30:08.528Z,22.50
2018-04-20T07:30:40.151Z,22.50
2018-04-20T07:31:11.769Z,22.50
2018-04-20T07:31:43.393Z,22.40
2018-04-20T07:32:15.033Z,22.50
2018-04-20T07:32:46.694Z,22.50